Time;durP1;ratioP1;P1;durP2;ratioP2;P2;SDS_P1;SDS_P2;PMS_P1;PMS_P2;Temp;Humidity;BMP_temperature;BMP_pressure;BME280_temperature;BME280_humidity;BME280_pressure;Samples;Min_cycle;Max_cycle;Signal;HPM_P1;HPM_P2
2023/06/11 00:02:05;;;;;;;9.90;6.63;;;;;;;-141.97;81.40;47538.28;5031947;28;20158;-79
2023/06/11 00:04:34;;;;;;;9.13;6.33;;;;;;;-141.97;81.61;47597.88;5031895;28;20161;-79
2023/06/11 00:07:01;;;;;;;8.83;6.23;;;;;;;-141.97;81.88;47588.28;5031765;28;20166;-79
2023/06/11 00:09:27;;;;;;;8.63;6.23;;;;;;;-141.97;81.72;47570.97;5032202;28;20249;-78
2023/06/11 00:11:53;;;;;;;10.23;6.37;;;;;;;-141.97;81.17;47595.97;5031722;28;20292;-78
2023/06/11 00:14:20;;;;;;;8.60;6.50;;;;;;;-141.97;81.09;47609.41;5031909;28;20208;-79
2023/06/11 00:16:46;;;;;;;9.10;6.20;;;;;;;-141.97;80.19;47572.91;5031899;28;20161;-79
2023/06/11 00:19:12;;;;;;;7.37;5.97;;;;;;;-141.97;79.36;47572.91;5031647;28;20489;-79
2023/06/11 00:21:43;;;;;;;8.57;5.90;;;;;;;-141.97;78.76;47486.41;5031776;28;20526;-81
2023/06/11 00:24:11;;;;;;;6.90;5.80;;;;;;;-141.97;78.16;47563.28;5031900;28;20594;-81
2023/06/11 00:26:38;;;;;;;8.07;5.90;;;;;;;-141.97;79.12;47793.94;5031743;28;20169;-80
2023/06/11 00:29:04;;;;;;;8.37;5.90;;;;;;;-141.97;79.48;47565.22;5031862;28;20155;-80
2023/06/11 00:31:29;;;;;;;8.67;5.60;;;;;;;-141.97;78.51;47576.75;5031579;28;20649;-80
2023/06/11 00:33:55;;;;;;;9.10;5.37;;;;;;;-141.97;79.14;47738.19;5031648;28;20562;-80
2023/06/11 00:36:20;;;;;;;9.17;5.70;;;;;;;-141.97;79.15;47557.53;5031598;28;20162;-79
2023/06/11 00:38:48;;;;;;;8.03;5.70;;;;;;;-141.97;78.70;47678.63;5031627;28;20239;-80
2023/06/11 00:41:14;;;;;;;7.03;5.60;;;;;;;-141.97;78.48;47576.75;5031839;28;20161;-78
2023/06/11 00:43:40;;;;;;;8.17;5.90;;;;;;;-141.97;78.88;47680.53;5031637;28;20728;-79
2023/06/11 00:46:10;;;;;;;9.10;5.63;;;;;;;-141.97;78.53;47603.66;5032417;28;20222;-79
2023/06/11 00:48:36;;;;;;;8.30;5.50;;;;;;;-141.97;78.63;47572.91;5032192;28;20265;-80
2023/06/11 00:51:02;;;;;;;8.60;6.07;;;;;;;-141.97;78.99;47599.81;5031449;28;20205;-80
2023/06/11 00:53:27;;;;;;;8.73;6.00;;;;;;;-141.97;79.36;47632.47;5030557;28;20646;-79
2023/06/11 00:55:53;;;;;;;10.70;5.80;;;;;;;-141.97;79.74;47578.66;5031706;28;20165;-79
2023/06/11 00:58:18;;;;;;;7.77;6.20;;;;;;;-141.97;79.92;47561.38;5031530;28;20190;-79
2023/06/11 01:00:47;;;;;;;7.67;5.90;;;;;;;-141.97;80.47;47592.13;5031545;28;20296;-81
2023/06/11 01:03:17;;;;;;;9.03;6.27;;;;;;;-141.97;81.00;47603.66;5031906;28;20169;-80
2023/06/11 01:06:06;;;;;;;7.97;6.23;;;;;;;-141.97;81.02;47595.97;5031719;28;20619;-80
2023/06/11 01:08:35;;;;;;;8.47;6.00;;;;;;;-141.97;81.23;47594.03;5031269;28;20302;-79
2023/06/11 01:11:01;;;;;;;10.03;6.27;;;;;;;-141.97;81.53;47605.56;5033792;28;20174;-79
2023/06/11 01:13:27;;;;;;;9.07;6.00;;;;;;;-141.97;81.92;47742.03;5035861;28;20248;-80
2023/06/11 01:16:04;;;;;;;8.80;5.87;;;;;;;-141.97;82.05;47565.22;5035189;28;20166;-78
2023/06/11 01:18:37;;;;;;;9.00;6.13;;;;;;;-141.97;81.56;47578.66;5035192;28;20192;-78
2023/06/11 01:21:12;;;;;;;7.80;5.87;;;;;;;-141.97;81.04;47592.13;5035090;28;20174;-78
2023/06/11 01:23:55;;;;;;;9.67;6.03;;;;;;;-141.97;80.88;47549.84;5035083;28;20618;-80
2023/06/11 01:26:43;;;;;;;9.37;6.20;;;;;;;-141.97;80.70;47619.03;5035339;28;20181;-79
2023/06/11 01:29:10;;;;;;;8.60;6.13;;;;;;;-141.97;80.32;47588.28;5035542;28;20630;-79
2023/06/11 01:31:39;;;;;;;11.10;6.60;;;;;;;-141.97;80.37;47595.97;5033945;28;20257;-80
2023/06/11 01:34:04;;;;;;;9.17;6.40;;;;;;;-141.97;79.95;47605.56;5035751;28;20162;-82
2023/06/11 01:36:34;;;;;;;7.87;6.37;;;;;;;-141.97;79.56;47595.97;5035701;28;20177;-81
2023/06/11 01:39:01;;;;;;;8.37;6.23;;;;;;;-141.97;79.69;47563.28;5035543;28;20210;-80
2023/06/11 01:41:27;;;;;;;8.67;6.60;;;;;;;-141.97;80.50;47634.41;5035118;28;20631;-82
2023/06/11 01:43:53;;;;;;;8.77;6.30;;;;;;;-141.97;81.28;47594.03;5033872;28;20181;-81
2023/06/11 01:46:18;;;;;;;10.40;6.60;;;;;;;-141.97;81.70;47574.81;5034807;28;20230;-81
2023/06/11 01:48:43;;;;;;;8.43;6.73;;;;;;;-141.97;81.60;47592.13;5035812;28;20540;-80
2023/06/11 01:51:09;;;;;;;9.97;6.90;;;;;;;-141.97;81.90;47595.97;5035293;28;20737;-81
2023/06/11 01:53:34;;;;;;;9.87;7.27;;;;;;;-141.97;80.93;47630.56;5035738;28;20181;-80
2023/06/11 01:56:00;;;;;;;10.77;7.17;;;;;;;-141.97;80.09;47619.03;5035209;28;20185;-81
2023/06/11 01:58:26;;;;;;;11.93;7.50;;;;;;;-141.97;79.69;47597.88;5035171;28;20565;-80
2023/06/11 02:00:51;;;;;;;10.77;7.33;;;;;;;-141.97;79.14;47597.88;5035475;28;20166;-81
2023/06/11 02:03:17;;;;;;;10.40;6.97;;;;;;;-141.97;78.92;47761.25;5034851;28;20711;-80
2023/06/11 02:05:43;;;;;;;11.90;7.20;;;;;;;-141.97;78.80;47599.81;5034878;28;20168;-80
2023/06/11 02:08:10;;;;;;;9.97;7.50;;;;;;;-141.97;78.54;47595.97;5033399;28;20162;-80
2023/06/11 02:10:35;;;;;;;10.93;7.40;;;;;;;-141.97;78.58;47603.66;5034611;28;20177;-79
2023/06/11 02:13:01;;;;;;;12.23;7.90;;;;;;;-141.97;78.74;47605.56;5035042;28;20170;-81
2023/06/11 02:15:26;;;;;;;11.77;7.80;;;;;;;-141.97;79.21;47607.50;5034642;28;20172;-82
2023/06/11 02:17:52;;;;;;;14.20;7.90;;;;;;;-141.97;79.17;47615.19;5033682;28;20304;-81
2023/06/11 02:20:17;;;;;;;11.03;7.97;;;;;;;-141.97;80.03;47570.97;5034346;28;20158;-81
2023/06/11 02:22:43;;;;;;;10.23;7.70;;;;;;;-141.97;79.74;47580.59;5032822;28;20184;-80
2023/06/11 02:25:08;;;;;;;10.77;7.53;;;;;;;-141.97;79.03;47544.06;5033861;28;20614;-80
2023/06/11 02:27:34;;;;;;;11.10;7.50;;;;;;;-141.97;79.48;47592.13;5033868;28;20193;-81
2023/06/11 02:29:59;;;;;;;11.70;7.23;;;;;;;-141.97;81.15;47599.81;5034572;28;20172;-80
2023/06/11 02:32:25;;;;;;;11.77;7.37;;;;;;;-141.97;81.19;47599.81;5032896;28;20565;-79
2023/06/11 02:34:51;;;;;;;9.87;7.43;;;;;;;-141.97;81.23;47607.50;5034102;28;20665;-80
2023/06/11 02:37:16;;;;;;;9.67;6.63;;;;;;;-141.97;81.56;47595.97;5034043;28;20200;-81
2023/06/11 02:39:42;;;;;;;11.20;7.37;;;;;;;-141.97;81.83;47601.72;5033944;28;20166;-81
2023/06/11 02:42:07;;;;;;;11.20;7.47;;;;;;;-141.97;81.47;47759.34;5033913;28;20204;-80
2023/06/11 02:44:34;;;;;;;9.17;7.33;;;;;;;-141.97;81.42;47582.50;5033908;28;20162;-81
2023/06/11 02:47:00;;;;;;;10.30;7.60;;;;;;;-141.97;81.40;47570.97;5034095;28;20214;-81
2023/06/11 02:49:26;;;;;;;11.23;7.20;;;;;;;-141.97;81.00;47776.63;5033473;28;20196;-80
2023/06/11 02:51:51;;;;;;;9.63;7.10;;;;;;;-141.97;80.71;47607.50;5034113;28;20543;-80
2023/06/11 02:54:17;;;;;;;13.43;7.13;;;;;;;-141.97;81.02;47584.44;5033767;28;20169;-81
2023/06/11 02:56:42;;;;;;;11.97;6.87;;;;;;;-141.97;80.62;47619.03;5033668;28;20166;-81
2023/06/11 02:59:08;;;;;;;10.57;7.17;;;;;;;-141.97;80.23;47599.81;5033801;28;20182;-79
2023/06/11 03:01:33;;;;;;;10.33;7.07;;;;;;;-141.97;80.13;47592.13;5032351;28;20170;-80
2023/06/11 03:03:58;;;;;;;13.63;7.60;;;;;;;-141.97;80.24;47570.97;5043370;28;20612;-79
2023/06/11 03:06:24;;;;;;;14.40;7.77;;;;;;;-141.97;81.19;47642.09;5033333;28;20185;-79
2023/06/11 03:08:49;;;;;;;10.90;7.67;;;;;;;-141.97;81.30;47546.00;5033756;28;20233;-78
2023/06/11 03:11:15;;;;;;;10.90;6.97;;;;;;;-141.97;81.62;47588.28;5033272;28;20176;-79
2023/06/11 03:13:40;;;;;;;10.60;7.20;;;;;;;-141.97;82.53;47576.75;5033088;28;20627;-79
2023/06/11 03:16:06;;;;;;;8.40;6.77;;;;;;;-141.97;82.98;47595.97;5033450;28;20521;-79
2023/06/11 03:18:31;;;;;;;11.53;7.43;;;;;;;-141.97;82.96;47638.25;5032392;28;20186;-79
2023/06/11 03:20:56;;;;;;;10.87;7.30;;;;;;;-141.97;81.79;47603.66;5032754;28;20249;-78
2023/06/11 03:23:22;;;;;;;12.87;7.60;;;;;;;-141.97;81.32;47592.13;5032569;28;20166;-78
2023/06/11 03:25:47;;;;;;;9.90;7.07;;;;;;;-141.97;81.20;47622.88;5032519;28;20170;-79
2023/06/11 03:28:13;;;;;;;9.90;7.00;;;;;;;-141.97;80.54;47597.88;5032744;28;20165;-79
2023/06/11 03:30:38;;;;;;;8.77;6.77;;;;;;;-141.97;80.19;47582.50;5032967;28;20158;-79
2023/06/11 03:33:03;;;;;;;10.93;7.87;;;;;;;-141.97;79.05;47588.28;5032158;28;20688;-79
2023/06/11 03:35:29;;;;;;;11.60;6.80;;;;;;;-141.97;78.84;47611.34;5031973;28;20163;-79
2023/06/11 03:37:54;;;;;;;11.27;7.77;;;;;;;-141.97;79.23;47603.66;5032397;28;20288;-80
2023/06/11 03:40:20;;;;;;;11.43;7.60;;;;;;;-141.97;79.33;47599.81;5032549;28;20163;-80
2023/06/11 03:42:45;;;;;;;14.10;8.10;;;;;;;-141.97;79.43;47586.34;5032717;28;20235;-79
2023/06/11 03:45:10;;;;;;;10.30;7.17;;;;;;;-141.97;78.86;47624.78;5032720;28;20198;-79
2023/06/11 03:47:36;;;;;;;11.93;7.53;;;;;;;-141.97;79.68;47555.59;5032266;28;20225;-79
2023/06/11 03:50:04;;;;;;;10.07;7.17;;;;;;;-141.97;79.08;47613.25;5032561;28;20605;-80
2023/06/11 03:52:30;;;;;;;10.17;7.10;;;;;;;-141.97;78.74;47661.31;5032786;28;20312;-80
2023/06/11 03:54:56;;;;;;;9.63;7.37;;;;;;;-141.97;77.98;47611.34;5032700;28;20233;-80
2023/06/11 03:57:22;;;;;;;11.27;7.43;;;;;;;-141.97;77.68;47670.91;5031110;28;20574;-80
2023/06/11 03:59:47;;;;;;;12.27;7.97;;;;;;;-141.97;77.57;47632.47;5031927;28;20170;-80
2023/06/11 04:02:13;;;;;;;13.97;7.40;;;;;;;-141.97;77.50;47590.19;5032389;28;20166;-79
2023/06/11 04:04:38;;;;;;;15.77;7.63;;;;;;;-141.97;77.00;47584.44;5032605;28;20171;-80
2023/06/11 04:07:04;;;;;;;15.17;7.13;;;;;;;-141.97;76.89;47697.84;5031972;28;20162;-80
2023/06/11 04:09:31;;;;;;;10.77;7.30;;;;;;;-141.97;76.76;47576.75;5031972;28;20166;-80
2023/06/11 04:11:56;;;;;;;11.57;7.87;;;;;;;-141.97;76.37;47580.59;5031945;28;20182;-80
2023/06/11 04:14:22;;;;;;;12.43;7.43;;;;;;;-141.97;75.78;47588.28;5032553;28;20257;-79
2023/06/11 04:16:48;;;;;;;10.43;7.70;;;;;;;-141.97;76.02;47569.06;5031938;28;20162;-80
2023/06/11 04:19:13;;;;;;;11.27;8.17;;;;;;;-141.97;76.69;47595.97;5031765;28;20204;-80
2023/06/11 04:21:38;;;;;;;12.40;7.70;;;;;;;-141.97;76.02;47734.34;5031987;28;20166;-80
2023/06/11 04:24:04;;;;;;;11.30;7.70;;;;;;;-141.97;75.67;47607.50;5031894;28;20158;-81
2023/06/11 04:26:31;;;;;;;11.83;7.77;;;;;;;-141.97;75.73;47619.03;5031914;28;20637;-80
2023/06/11 04:28:57;;;;;;;11.33;7.67;;;;;;;-141.97;75.26;47597.88;5032033;28;20200;-80
2023/06/11 04:31:26;;;;;;;9.83;7.33;;;;;;;-141.97;75.68;47595.97;5031472;28;20166;-79
2023/06/11 04:33:55;;;;;;;13.43;8.03;;;;;;;-141.97;75.31;47659.38;5031437;28;20161;-79
2023/06/11 04:36:24;;;;;;;10.63;7.63;;;;;;;-141.97;75.49;47592.13;5031847;28;20220;-81
2023/06/11 04:38:51;;;;;;;13.30;7.60;;;;;;;-141.97;74.72;47570.97;5031435;28;20198;-80
2023/06/11 04:41:17;;;;;;;12.47;8.00;;;;;;;-141.97;74.71;47617.09;5030188;28;20595;-80
2023/06/11 04:43:45;;;;;;;10.50;7.13;;;;;;;-141.97;74.66;47584.44;5032053;28;20166;-79
2023/06/11 04:46:10;;;;;;;12.77;7.40;;;;;;;-141.97;74.11;47603.66;5031188;28;20309;-78
2023/06/11 04:48:37;;;;;;;13.10;8.00;;;;;;;-141.97;72.62;47563.28;5031239;28;20186;-80
2023/06/11 04:51:04;;;;;;;12.37;8.27;;;;;;;-141.97;72.00;47603.66;5031632;28;20188;-80
2023/06/11 04:53:30;;;;;;;11.47;7.53;;;;;;;-141.97;71.05;47584.44;5031777;28;20252;-80
2023/06/11 04:55:58;;;;;;;10.07;7.43;;;;;;;-141.97;70.80;47609.41;5031440;28;20194;-80
2023/06/11 04:58:29;;;;;;;10.27;7.33;;;;;;;-141.97;69.78;47592.13;5031920;28;20220;-80
2023/06/11 05:00:58;;;;;;;11.03;7.03;;;;;;;-141.97;68.88;47553.69;5031685;28;20166;-80
2023/06/11 05:03:24;;;;;;;15.80;7.40;;;;;;;-141.97;69.72;47580.59;5031625;28;20542;-80
2023/06/11 05:05:51;;;;;;;14.07;8.07;;;;;;;-141.97;69.20;47636.31;5030059;28;20170;-80
2023/06/11 05:08:17;;;;;;;14.93;7.80;;;;;;;-141.97;68.59;47576.75;5029898;28;20171;-80
2023/06/11 05:10:42;;;;;;;11.90;8.30;;;;;;;-141.97;68.48;47565.22;5030971;28;20235;-80
2023/06/11 05:13:08;;;;;;;12.40;7.97;;;;;;;-141.97;68.04;47546.00;5031485;28;20658;-79
2023/06/11 05:15:33;;;;;;;13.90;8.63;;;;;;;-141.97;67.87;47620.94;5031548;28;20159;-79
2023/06/11 05:18:00;;;;;;;12.87;8.33;;;;;;;-141.97;67.00;47605.56;5031047;28;20589;-79
2023/06/11 05:20:26;;;;;;;9.97;7.67;;;;;;;-141.97;66.37;47576.75;5031144;28;20159;-79
2023/06/11 05:22:58;;;;;;;12.67;7.93;;;;;;;-141.97;65.63;47580.59;5030932;28;20218;-80
2023/06/11 05:25:27;;;;;;;13.27;7.67;;;;;;;-141.97;65.03;47567.13;5014382;28;20189;-79
2023/06/11 05:27:55;;;;;;;10.77;7.33;;;;;;;-141.97;64.40;47555.59;5031026;28;20745;-80
2023/06/11 05:30:24;;;;;;;10.27;6.97;;;;;;;-141.97;64.63;47609.41;5031505;28;20158;-80
2023/06/11 05:32:50;;;;;;;11.27;7.13;;;;;;;-141.97;64.49;47742.03;5029808;28;20167;-80
2023/06/11 05:35:16;;;;;;;10.07;6.77;;;;;;;-141.97;65.03;47584.44;5031011;28;20201;-81
2023/06/11 05:37:42;;;;;;;10.50;7.10;;;;;;;-141.97;65.64;47626.72;5030996;28;20192;-80
2023/06/11 05:40:09;;;;;;;12.87;7.43;;;;;;;-141.97;64.98;47576.75;5031037;28;20158;-80
2023/06/11 05:42:34;;;;;;;11.03;7.23;;;;;;;-141.97;63.54;47565.22;5031141;28;20184;-80
2023/06/11 05:45:00;;;;;;;8.33;6.90;;;;;;;-141.97;63.00;47669.00;5031308;28;20642;-79
2023/06/11 05:47:25;;;;;;;12.50;7.37;;;;;;;-141.97;62.98;47597.88;5030935;28;20836;-82
2023/06/11 05:49:51;;;;;;;13.27;7.53;;;;;;;-141.97;61.36;47549.84;5030478;28;20170;-80
2023/06/11 05:52:16;;;;;;;11.67;7.00;;;;;;;-141.97;60.34;47603.66;5030805;28;20603;-80
2023/06/11 05:54:41;;;;;;;11.23;7.23;;;;;;;-141.97;58.92;47561.38;5030982;28;20256;-79
2023/06/11 05:57:20;;;;;;;12.67;7.27;;;;;;;-141.97;58.21;47651.69;5031343;28;20162;-80
2023/06/11 05:59:46;;;;;;;10.30;6.90;;;;;;;-141.97;58.72;47513.31;5034554;28;20193;-80
2023/06/11 06:02:11;;;;;;;11.57;7.30;;;;;;;-141.97;59.60;47546.00;5033431;28;20231;-79
2023/06/11 06:04:36;;;;;;;11.77;7.27;;;;;;;-141.97;58.78;47565.22;5033733;28;20170;-81
2023/06/11 06:07:02;;;;;;;11.77;7.80;;;;;;;-141.97;57.15;47538.28;5034014;28;20173;-78
2023/06/11 06:09:27;;;;;;;7.87;6.30;;;;;;;-141.97;57.50;47538.28;5034249;28;20249;-78
2023/06/11 06:11:53;;;;;;;7.87;6.70;;;;;;;-141.97;57.38;47530.59;5033886;28;20178;-79
2023/06/11 06:14:18;;;;;;;10.30;6.90;;;;;;;-141.97;56.33;47544.06;5033953;28;20164;-77
2023/06/11 06:16:43;;;;;;;10.10;7.10;;;;;;;-141.97;55.78;47480.63;5033513;28;20186;-80
2023/06/11 06:19:09;;;;;;;10.10;6.73;;;;;;;-141.97;55.50;47505.63;5031582;28;20233;-80
2023/06/11 06:21:34;;;;;;;7.33;6.30;;;;;;;-141.97;55.65;47522.91;5031717;28;20182;-81
2023/06/11 06:24:00;;;;;;;9.77;6.87;;;;;;;-141.97;55.39;47655.53;5034425;28;20612;-81
2023/06/11 06:26:25;;;;;;;11.40;6.80;;;;;;;-141.97;55.26;47661.31;5034797;28;20174;-81
2023/06/11 06:28:53;;;;;;;10.50;7.10;;;;;;;-141.97;55.06;47718.97;5034311;28;20154;-81
2023/06/11 06:31:20;;;;;;;8.93;6.60;;;;;;;-141.97;55.56;47749.72;5034528;28;20652;-81
2023/06/11 06:33:46;;;;;;;11.23;6.60;;;;;;;-141.97;54.92;47472.94;5034651;28;20169;-82
2023/06/11 06:36:12;;;;;;;9.53;6.03;;;;;;;-141.97;54.75;47503.69;5033931;28;20542;-82
2023/06/11 06:38:37;;;;;;;8.07;6.57;;;;;;;-141.97;55.25;47499.84;5034389;28;20193;-81
2023/06/11 06:41:03;;;;;;;8.73;6.50;;;;;;;-141.97;55.55;47438.34;5034115;28;20174;-80
2023/06/11 06:43:29;;;;;;;8.17;6.43;;;;;;;-141.97;54.22;47547.91;5034486;28;20246;-82
2023/06/11 06:45:55;;;;;;;9.80;6.70;;;;;;;-141.97;54.83;47572.91;5033797;28;20714;-81
2023/06/11 06:48:21;;;;;;;9.37;6.60;;;;;;;-141.97;55.17;47511.38;5032544;28;20162;-81
2023/06/11 06:50:47;;;;;;;7.50;6.70;;;;;;;-141.97;53.92;47688.22;5033204;28;20560;-81
2023/06/11 06:53:14;;;;;;;9.93;6.73;;;;;;;-141.97;53.70;47505.63;5033874;28;20281;-81
2023/06/11 06:55:40;;;;;;;9.23;6.30;;;;;;;-141.97;53.63;47695.91;5033821;28;20985;-81
2023/06/11 06:58:06;;;;;;;10.63;6.50;;;;;;;-141.97;53.44;47499.84;5033766;28;20194;-82
2023/06/11 07:00:31;;;;;;;8.23;6.70;;;;;;;-141.97;52.83;47511.38;5033504;28;20224;-80
2023/06/11 07:02:57;;;;;;;11.90;6.80;;;;;;;-141.97;53.76;47567.13;5033148;28;20200;-81
2023/06/11 07:05:22;;;;;;;12.13;7.40;;;;;;;-141.97;53.89;47549.84;5033264;28;20162;-81
2023/06/11 07:07:48;;;;;;;12.60;6.80;;;;;;;-141.97;54.42;47538.28;5032649;28;20174;-81
2023/06/11 07:10:13;;;;;;;8.03;6.60;;;;;;;-141.97;53.41;47507.53;5033044;28;20162;-79
2023/06/11 07:12:39;;;;;;;10.27;7.10;;;;;;;-141.97;52.94;47724.75;5032431;28;20209;-81
2023/06/11 07:15:04;;;;;;;7.17;6.40;;;;;;;-141.97;53.07;47459.50;5031785;28;20300;-81
2023/06/11 07:17:30;;;;;;;9.87;7.00;;;;;;;-141.97;52.22;47521.00;5031697;28;20202;-80
2023/06/11 07:19:55;;;;;;;9.37;6.87;;;;;;;-141.97;51.62;47453.72;5033110;28;20181;-81
2023/06/11 07:22:21;;;;;;;9.60;7.70;;;;;;;-141.97;51.19;47519.06;5033327;28;20527;-80
2023/06/11 07:24:48;;;;;;;9.30;6.68;;;;;;;-141.97;51.36;47422.97;5032615;28;20163;-81
2023/06/11 07:27:14;;;;;;;7.93;6.67;;;;;;;-141.97;50.67;47392.22;5033278;28;20764;-81
2023/06/11 07:29:40;;;;;;;9.73;7.00;;;;;;;-141.97;51.07;47511.38;5032614;28;20166;-81
2023/06/11 07:32:08;;;;;;;7.93;6.45;;;;;;;-141.97;50.52;47505.63;5033303;28;20171;-80
2023/06/11 07:34:34;;;;;;;8.70;6.63;;;;;;;-141.97;50.25;47755.50;5031447;28;20260;-79
2023/06/11 07:36:59;;;;;;;9.13;7.07;;;;;;;-141.97;50.12;47695.91;5032611;28;20250;-78
2023/06/11 07:39:25;;;;;;;9.38;7.07;;;;;;;-141.97;48.31;47515.22;5032930;28;20647;-81
2023/06/11 07:41:51;;;;;;;14.70;8.77;;;;;;;-141.97;47.79;47461.41;5033326;28;20645;-81
2023/06/11 07:44:16;;;;;;;8.68;6.78;;;;;;;-141.97;46.30;47472.94;5032567;28;20245;-80
2023/06/11 07:46:44;;;;;;;11.85;8.60;;;;;;;-141.97;45.82;47357.63;5032649;28;20217;-81
2023/06/11 07:49:10;;;;;;;9.95;7.28;;;;;;;-141.97;45.62;47461.41;5032962;28;20614;-80
2023/06/11 07:51:36;;;;;;;10.85;8.35;;;;;;;-141.97;44.91;47478.72;5031749;28;20171;-80
2023/06/11 07:54:02;;;;;;;8.25;6.97;;;;;;;-141.97;44.51;47430.66;5031256;28;20199;-81
2023/06/11 07:56:27;;;;;;;11.07;8.02;;;;;;;-141.97;44.36;47434.50;5032621;28;20177;-79
2023/06/11 07:58:53;;;;;;;8.93;6.78;;;;;;;-141.97;43.96;47511.38;5032786;28;20201;-81
2023/06/11 08:01:19;;;;;;;8.60;6.22;;;;;;;-141.97;43.84;47453.72;5032617;28;20182;-82
2023/06/11 08:03:44;;;;;;;8.85;6.07;;;;;;;-141.97;43.24;47453.72;5032433;28;20224;-79
2023/06/11 08:06:10;;;;;;;9.50;7.50;;;;;;;-141.97;43.34;47424.91;5032315;28;20165;-80
2023/06/11 08:08:35;;;;;;;9.10;6.20;;;;;;;-141.97;43.92;47257.69;5032785;28;20172;-81
2023/06/11 08:11:01;;;;;;;8.65;6.20;;;;;;;-141.97;42.60;47607.50;5033478;28;20165;-81
2023/06/11 08:13:26;;;;;;;7.82;6.20;;;;;;;-141.97;41.33;47273.06;5033440;28;20620;-80
2023/06/11 08:15:52;;;;;;;8.77;6.38;;;;;;;-141.97;42.17;47323.03;5031845;28;20165;-80
2023/06/11 08:18:18;;;;;;;7.47;5.85;;;;;;;-141.97;42.59;47426.81;5032969;28;20194;-80
2023/06/11 08:20:43;;;;;;;7.47;6.15;;;;;;;-141.97;42.24;47446.03;5031799;28;20177;-80
2023/06/11 08:23:09;;;;;;;8.75;6.50;;;;;;;-141.97;41.00;47638.25;5032610;28;20177;-81
2023/06/11 08:25:36;;;;;;;10.60;6.82;;;;;;;-141.97;40.14;47430.66;5032366;28;20173;-80
2023/06/11 08:28:01;;;;;;;8.00;6.30;;;;;;;-141.97;39.93;47334.56;5031913;28;20152;-78
2023/06/11 08:30:27;;;;;;;6.55;5.75;;;;;;;-141.97;41.13;47286.53;5030617;28;20179;-80
2023/06/11 08:32:52;;;;;;;6.63;6.03;;;;;;;-141.97;41.26;47365.31;5032298;28;20294;-82
2023/06/11 08:35:18;;;;;;;7.38;5.68;;;;;;;-141.97;40.61;47649.78;5032336;28;20201;-80
2023/06/11 08:37:43;;;;;;;7.10;5.95;;;;;;;-141.97;40.22;47386.47;5032073;28;20576;-81
2023/06/11 08:40:10;;;;;;;6.55;5.80;;;;;;;-141.97;39.16;47296.13;5031838;28;20223;-81
2023/06/11 08:42:35;;;;;;;7.28;5.85;;;;;;;-141.97;38.62;47361.47;5030485;28;20652;-80
2023/06/11 08:45:01;;;;;;;9.30;6.60;;;;;;;-141.97;38.98;47351.88;5032252;28;20172;-80
2023/06/11 08:47:31;;;;;;;8.30;6.20;;;;;;;-141.97;39.41;47442.19;5030613;28;20329;-79
2023/06/11 08:49:59;;;;;;;8.40;6.25;;;;;;;-141.97;38.64;47403.75;5030300;28;20180;-80
2023/06/11 08:52:30;;;;;;;7.28;5.78;;;;;;;-141.97;39.13;47428.75;5030727;28;20636;-81
2023/06/11 08:54:55;;;;;;;8.27;5.82;;;;;;;-141.97;38.49;47436.44;5031525;28;20166;-80
2023/06/11 08:57:21;;;;;;;12.18;6.07;;;;;;;-141.97;38.32;47407.59;5031641;28;20168;-79
2023/06/11 08:59:46;;;;;;;7.70;5.90;;;;;;;-141.97;38.78;47365.31;5031481;28;20173;-81
2023/06/11 09:02:12;;;;;;;7.25;6.03;;;;;;;-141.97;38.61;47411.44;5031884;28;20165;-80
2023/06/11 09:04:43;;;;;;;9.10;5.97;;;;;;;-141.97;38.37;47436.44;5031705;28;20625;-81
2023/06/11 09:07:09;;;;;;;8.10;6.10;;;;;;;-141.97;36.88;47351.88;5031471;28;20166;-80
2023/06/11 09:09:34;;;;;;;6.85;5.93;;;;;;;-141.97;36.90;47250.00;5031534;28;20175;-81
2023/06/11 09:12:05;;;;;;;7.25;5.80;;;;;;;-141.97;36.77;47326.88;5030286;28;20184;-83
2023/06/11 09:14:31;;;;;;;6.90;6.15;;;;;;;-141.97;36.24;47367.25;5031943;28;20169;-82
2023/06/11 09:16:56;;;;;;;10.38;6.05;;;;;;;-141.97;35.81;47265.38;5031750;28;20622;-81
2023/06/11 09:19:22;;;;;;;9.50;5.85;;;;;;;-141.97;35.89;47292.28;5031865;28;20186;-81
2023/06/11 09:21:56;;;;;;;10.32;6.13;;;;;;;-141.97;35.72;47513.31;5031176;28;20166;-81
2023/06/11 09:24:23;;;;;;;8.90;5.80;;;;;;;-141.97;35.37;47403.75;5031438;28;20172;-81
2023/06/11 09:26:54;;;;;;;10.55;5.78;;;;;;;-141.97;35.67;47348.03;5031247;28;20587;-81
2023/06/11 09:29:21;;;;;;;10.43;5.90;;;;;;;-141.97;35.04;47346.09;5031531;28;20614;-81
2023/06/11 09:31:46;;;;;;;7.55;5.80;;;;;;;-141.97;35.45;47380.69;5032215;28;20165;-80
2023/06/11 09:34:16;;;;;;;8.82;5.80;;;;;;;-141.97;35.51;47390.31;5034875;28;20165;-80
2023/06/11 09:36:46;;;;;;;9.20;6.07;;;;;;;-141.97;36.07;47369.16;5033994;28;20246;-81
2023/06/11 09:39:13;;;;;;;6.88;5.57;;;;;;;-141.97;35.82;47369.16;5035065;28;20196;-81
2023/06/11 09:41:46;;;;;;;7.30;5.40;;;;;;;-141.97;35.99;47392.22;5034921;28;20237;-80
2023/06/11 09:44:11;;;;;;;8.40;5.90;;;;;;;-141.97;35.98;47323.03;5035066;28;20211;-81
2023/06/11 09:46:37;;;;;;;7.85;6.18;;;;;;;-141.97;36.26;47613.25;5034675;28;20653;-81
2023/06/11 09:49:02;;;;;;;6.90;5.82;;;;;;;-141.97;35.16;47401.84;5035015;28;20170;-81
2023/06/11 09:51:29;;;;;;;8.25;5.63;;;;;;;-141.97;35.01;47392.22;5034896;28;20555;-80
2023/06/11 09:53:55;;;;;;;7.75;5.57;;;;;;;-141.97;35.21;47415.28;5034850;28;20176;-80
2023/06/11 09:56:21;;;;;;;8.43;5.75;;;;;;;-141.97;35.73;47471.03;5034436;28;20169;-81
2023/06/11 09:58:48;;;;;;;9.88;5.57;;;;;;;-141.97;35.26;47388.38;5035053;28;20284;-81
2023/06/11 10:01:15;;;;;;;7.18;5.70;;;;;;;-141.97;35.31;47413.38;5035106;28;20179;-81
2023/06/11 10:03:40;;;;;;;8.52;5.63;;;;;;;-141.97;35.17;47373.00;5034656;28;20177;-80
2023/06/11 10:06:12;;;;;;;6.53;5.63;;;;;;;-141.97;35.09;47396.06;5034370;28;20548;-80
2023/06/11 10:08:38;;;;;;;9.65;5.30;;;;;;;-141.97;35.23;47361.47;5033954;28;20617;-80
2023/06/11 10:11:04;;;;;;;9.38;5.30;;;;;;;-141.97;35.14;47353.78;5034178;28;20195;-80
2023/06/11 10:13:34;;;;;;;7.78;5.50;;;;;;;-141.97;34.50;47373.00;5034221;28;20271;-80
2023/06/11 10:16:03;;;;;;;9.10;5.05;;;;;;;-141.97;34.91;47403.75;5033120;28;20161;-80
2023/06/11 10:18:30;;;;;;;6.05;5.00;;;;;;;-141.97;33.82;47376.84;5034155;28;20698;-80
2023/06/11 10:21:02;;;;;;;6.10;5.00;;;;;;;-141.97;33.76;47380.69;5033877;28;20158;-80
2023/06/11 10:23:41;;;;;;;10.02;4.85;;;;;;;-141.97;34.05;47419.13;5034023;28;20652;-81
2023/06/11 10:26:07;;;;;;;6.93;4.57;;;;;;;-141.97;34.86;47363.41;5033428;28;20189;-80
2023/06/11 10:28:40;;;;;;;5.07;4.45;;;;;;;-141.97;34.97;47599.81;5033839;28;20170;-80
2023/06/11 10:31:05;;;;;;;10.80;5.45;;;;;;;-141.97;35.64;47315.34;5033407;28;20230;-81
2023/06/11 10:33:40;;;;;;;7.38;4.78;;;;;;;-141.97;35.81;47407.59;5033398;28;20162;-80
2023/06/11 10:36:06;;;;;;;6.07;5.32;;;;;;;-141.97;35.56;47257.69;5033828;28;20211;-81
2023/06/11 10:38:37;;;;;;;7.10;4.95;;;;;;;-141.97;35.49;47344.19;5034547;28;20228;-81
2023/06/11 10:41:05;;;;;;;8.55;5.13;;;;;;;-141.97;35.00;47409.53;5034147;28;20157;-81
2023/06/11 10:43:32;;;;;;;6.43;5.22;;;;;;;-141.97;34.35;47394.16;5033565;28;20248;-80
2023/06/11 10:46:11;;;;;;;5.68;4.90;;;;;;;-141.97;34.16;47363.41;5033937;28;20770;-80
2023/06/11 10:48:48;;;;;;;9.40;5.43;;;;;;;-141.97;34.67;47292.28;5032132;28;20204;-80
2023/06/11 10:51:13;;;;;;;9.20;5.57;;;;;;;-141.97;35.27;47411.44;5033450;28;20165;-80
2023/06/11 10:53:40;;;;;;;8.75;6.07;;;;;;;-141.97;34.98;47380.69;5034057;28;20205;-80
2023/06/11 10:56:12;;;;;;;8.15;5.88;;;;;;;-141.97;35.02;47374.94;5033718;28;20210;-80
2023/06/11 10:58:38;;;;;;;7.50;5.10;;;;;;;-141.97;34.51;47419.13;5033302;28;20972;-80
2023/06/11 11:01:07;;;;;;;7.20;4.93;;;;;;;-141.97;34.78;47411.44;5033767;28;20188;-80
2023/06/11 11:03:34;;;;;;;7.25;4.90;;;;;;;-141.97;36.07;47401.84;5033265;28;20173;-79
2023/06/11 11:06:00;;;;;;;5.82;5.20;;;;;;;-141.97;36.15;47405.69;5032527;28;20311;-80
2023/06/11 11:08:25;;;;;;;6.25;5.32;;;;;;;-141.97;36.77;47569.06;5033305;28;20603;-80
2023/06/11 11:11:01;;;;;;;10.45;5.60;;;;;;;-141.97;37.06;47399.91;5032486;28;20173;-81
2023/06/11 11:13:30;;;;;;;9.60;5.43;;;;;;;-141.97;37.02;47307.66;5033638;28;20240;-80